Time;durP1;ratioP1;P1;durP2;ratioP2;P2;SDS_P1;SDS_P2;PMS_P1;PMS_P2;Temp;Humidity;BMP_temperature;BMP_pressure;BME280_temperature;BME280_humidity;BME280_pressure;Samples;Min_cycle;Max_cycle;Signal;HPM_P1;HPM_P2
2022/12/04 00:01:29;;;;;;;;;;;1.40;99.90;;;;;;5092511;28;19908;-41
2022/12/04 00:03:55;;;;;;;;;;;1.50;99.90;;;;;;5092345;28;20366;-39
2022/12/04 00:06:21;;;;;;;;;;;1.50;99.90;;;;;;5091968;28;19908;-40
2022/12/04 00:08:47;;;;;;;;;;;1.40;99.90;;;;;;5099476;28;19998;-38
2022/12/04 00:11:14;;;;;;;;;;;1.50;99.90;;;;;;5092135;28;20054;-40
2022/12/04 00:13:40;;;;;;;;;;;1.40;99.90;;;;;;5092299;28;20003;-39
2022/12/04 00:16:06;;;;;;;;;;;1.50;99.90;;;;;;5092418;28;20421;-41
2022/12/04 00:18:32;;;;;;;;;;;1.50;99.90;;;;;;5094484;28;20053;-39
2022/12/04 00:20:57;;;;;;;;;;;1.50;99.90;;;;;;5112701;28;20002;-41
2022/12/04 00:23:23;;;;;;;;;;;1.50;99.90;;;;;;5112682;28;20282;-40
2022/12/04 00:25:48;;;;;;;;;;;1.50;99.90;;;;;;5112026;28;19931;-39
2022/12/04 00:28:17;;;;;;;;;;;1.50;99.90;;;;;;5111687;28;19915;-39
2022/12/04 00:30:44;;;;;;;;;;;1.50;99.90;;;;;;5112350;28;19912;-39
2022/12/04 00:33:10;;;;;;;;;;;1.50;99.90;;;;;;5111886;28;19996;-39
2022/12/04 00:35:35;;;;;;;;;;;1.50;99.90;;;;;;5112476;28;19911;-40
2022/12/04 00:38:01;;;;;;;;;;;1.50;99.90;;;;;;5112561;28;20002;-41
2022/12/04 00:40:27;;;;;;;;;;;1.50;99.90;;;;;;5092408;28;19912;-40
2022/12/04 00:42:52;;;;;;;;;;;1.50;99.90;;;;;;5092196;28;19962;-39
2022/12/04 00:45:18;;;;;;;;;;;1.50;99.90;;;;;;5094962;28;20355;-41
2022/12/04 00:47:43;;;;;;;;;;;1.50;99.90;;;;;;5103532;28;19957;-39
2022/12/04 00:50:09;;;;;;;;;;;1.50;99.90;;;;;;5116356;28;19961;-41
2022/12/04 00:52:35;;;;;;;;;;;1.50;99.90;;;;;;5112202;28;20367;-40
2022/12/04 00:55:00;;;;;;;;;;;1.50;99.90;;;;;;5115683;28;20385;-38
2022/12/04 00:57:25;;;;;;;;;;;1.50;99.90;;;;;;5096410;28;19964;-38
2022/12/04 00:59:51;;;;;;;;;;;1.50;99.90;;;;;;5095479;28;19915;-39
2022/12/04 01:02:16;;;;;;;;;;;1.50;99.90;;;;;;5095181;28;19912;-40
2022/12/04 01:04:42;;;;;;;;;;;1.50;99.90;;;;;;5095556;28;20366;-39
2022/12/04 01:07:07;;;;;;;;;;;1.40;99.90;;;;;;5098201;28;19912;-40
2022/12/04 01:09:33;;;;;;;;;;;1.50;99.90;;;;;;5114959;28;19926;-40
2022/12/04 01:11:58;;;;;;;;;;;1.40;99.90;;;;;;5115592;28;20017;-39
2022/12/04 01:14:23;;;;;;;;;;;1.50;99.90;;;;;;5115378;28;19914;-40
2022/12/04 01:16:49;;;;;;;;;;;1.40;99.90;;;;;;5115199;28;20282;-39
2022/12/04 01:19:14;;;;;;;;;;;1.40;99.90;;;;;;5095393;28;19939;-40
2022/12/04 01:21:40;;;;;;;;;;;1.40;99.90;;;;;;5094461;28;19912;-39
2022/12/04 01:24:06;;;;;;;;;;;1.40;99.90;;;;;;5095206;28;19916;-39
2022/12/04 01:26:31;;;;;;;;;;;1.40;99.90;;;;;;5095120;28;19947;-40
2022/12/04 01:28:57;;;;;;;;;;;1.40;99.90;;;;;;5112140;28;19908;-39
2022/12/04 01:31:24;;;;;;;;;;;1.40;99.90;;;;;;5101938;28;19916;-40
2022/12/04 01:33:50;;;;;;;;;;;1.40;99.90;;;;;;5095087;28;19909;-40
2022/12/04 01:36:17;;;;;;;;;;;1.40;99.90;;;;;;5094241;28;19919;-41
2022/12/04 01:38:43;;;;;;;;;;;1.40;99.90;;;;;;5094880;28;19915;-39
2022/12/04 01:41:09;;;;;;;;;;;1.40;99.90;;;;;;5104895;28;19908;-40
2022/12/04 01:43:36;;;;;;;;;;;1.40;99.90;;;;;;5114358;28;19952;-40
2022/12/04 01:46:02;;;;;;;;;;;1.40;99.90;;;;;;5115352;28;19908;-41
2022/12/04 01:48:32;;;;;;;;;;;1.40;99.90;;;;;;5113162;28;19914;-39
2022/12/04 01:51:18;;;;;;;;;;;1.40;99.90;;;;;;5093864;28;19973;-41
2022/12/04 01:53:48;;;;;;;;;;;1.40;99.90;;;;;;5093871;28;19909;-40
2022/12/04 01:56:13;;;;;;;;;;;1.40;99.90;;;;;;5093422;28;19954;-41
2022/12/04 01:58:45;;;;;;;;;;;1.40;99.90;;;;;;5096575;28;19966;-40
2022/12/04 02:01:10;;;;;;;;;;;1.40;99.90;;;;;;5114687;28;20412;-40
2022/12/04 02:03:36;;;;;;;;;;;1.40;99.90;;;;;;5114490;28;19916;-39
2022/12/04 02:06:02;;;;;;;;;;;1.40;99.90;;;;;;5114389;28;19943;-40
2022/12/04 02:08:28;;;;;;;;;;;1.40;99.90;;;;;;5113481;28;19957;-41
2022/12/04 02:11:04;;;;;;;;;;;1.40;99.90;;;;;;5093207;28;20010;-40
2022/12/04 02:13:35;;;;;;;;;;;1.40;99.90;;;;;;5094144;28;19915;-39
2022/12/04 02:16:07;;;;;;;;;;;1.40;99.90;;;;;;5094371;28;19912;-40
2022/12/04 02:18:43;;;;;;;;;;;1.40;99.90;;;;;;5094529;28;20355;-39
2022/12/04 02:21:18;;;;;;;;;;;1.40;99.90;;;;;;5111975;28;19907;-41
2022/12/04 02:23:54;;;;;;;;;;;1.40;99.90;;;;;;5093790;28;19955;-39
2022/12/04 02:26:26;;;;;;;;;;;1.40;99.90;;;;;;5096694;28;20367;-40
2022/12/04 02:29:10;;;;;;;;;;;1.40;99.90;;;;;;5105043;28;19919;-40
2022/12/04 02:31:39;;;;;;;;;;;1.40;99.90;;;;;;5113962;28;19934;-40
2022/12/04 02:34:22;;;;;;;;;;;1.40;99.90;;;;;;5113899;28;19911;-39
2022/12/04 02:36:59;;;;;;;;;;;1.40;99.90;;;;;;5114266;28;19962;-40
2022/12/04 02:39:36;;;;;;;;;;;1.40;99.90;;;;;;5105348;28;19916;-39
2022/12/04 02:42:11;;;;;;;;;;;1.40;99.90;;;;;;5093881;28;19907;-40
2022/12/04 02:44:38;;;;;;;;;;;1.40;99.90;;;;;;5093736;28;19919;-40
2022/12/04 02:47:06;;;;;;;;;;;1.40;99.90;;;;;;5094009;28;19911;-39
2022/12/04 02:49:41;;;;;;;;;;;1.40;99.90;;;;;;5093651;28;19916;-40
2022/12/04 02:52:08;;;;;;;;;;;1.40;99.90;;;;;;5093466;28;19984;-40
2022/12/04 02:54:35;;;;;;;;;;;1.40;99.90;;;;;;5092862;28;19966;-39
2022/12/04 02:57:03;;;;;;;;;;;1.40;99.90;;;;;;5094156;28;19908;-39
2022/12/04 02:59:36;;;;;;;;;;;1.40;99.90;;;;;;5113892;28;19988;-40
2022/12/04 03:02:06;;;;;;;;;;;1.40;99.90;;;;;;5113184;28;19907;-40
2022/12/04 03:04:32;;;;;;;;;;;1.40;99.90;;;;;;5113750;28;20002;-39
2022/12/04 03:07:04;;;;;;;;;;;1.30;99.90;;;;;;5112050;28;20000;-40
2022/12/04 03:09:43;;;;;;;;;;;1.30;99.90;;;;;;5092748;28;20363;-39
2022/12/04 03:12:13;;;;;;;;;;;1.40;99.90;;;;;;5093372;28;19908;-40
2022/12/04 03:14:40;;;;;;;;;;;1.30;99.90;;;;;;5092362;28;19915;-40
2022/12/04 03:17:10;;;;;;;;;;;1.30;99.90;;;;;;5094444;28;19912;-40
2022/12/04 03:19:38;;;;;;;;;;;1.30;99.90;;;;;;5113291;28;19918;-40
2022/12/04 03:22:05;;;;;;;;;;;1.30;99.90;;;;;;5112682;28;19915;-39
2022/12/04 03:24:39;;;;;;;;;;;1.30;99.90;;;;;;5113366;28;19911;-39
2022/12/04 03:27:09;;;;;;;;;;;1.30;99.90;;;;;;5112000;28;19908;-40
2022/12/04 03:29:49;;;;;;;;;;;1.20;99.90;;;;;;5092291;28;19915;-40
2022/12/04 03:32:18;;;;;;;;;;;1.20;99.90;;;;;;5093023;28;19943;-42
2022/12/04 03:34:56;;;;;;;;;;;1.20;99.90;;;;;;5092574;28;19908;-39
2022/12/04 03:37:25;;;;;;;;;;;1.20;99.90;;;;;;5108234;28;19919;-40
2022/12/04 03:39:51;;;;;;;;;;;1.20;99.90;;;;;;5113211;28;19911;-40
2022/12/04 03:42:21;;;;;;;;;;;1.20;99.90;;;;;;5097498;28;19912;-40
2022/12/04 03:44:51;;;;;;;;;;;1.20;99.90;;;;;;5094453;28;19916;-41
2022/12/04 03:47:24;;;;;;;;;;;1.20;99.90;;;;;;5097270;28;20003;-40
2022/12/04 03:49:59;;;;;;;;;;;1.20;99.90;;;;;;5091985;28;20402;-40
2022/12/04 03:52:27;;;;;;;;;;;1.20;99.90;;;;;;5092607;28;19908;-40
2022/12/04 03:54:58;;;;;;;;;;;1.10;99.90;;;;;;5092620;28;19908;-42
2022/12/04 03:57:26;;;;;;;;;;;1.10;99.90;;;;;;5103095;28;19965;-39
2022/12/04 03:59:55;;;;;;;;;;;1.10;99.90;;;;;;5092768;28;20382;-40
2022/12/04 04:02:23;;;;;;;;;;;1.10;99.90;;;;;;5092362;28;20499;-40
2022/12/04 04:04:50;;;;;;;;;;;1.10;99.90;;;;;;5099865;28;19923;-39
2022/12/04 04:07:23;;;;;;;;;;;1.10;99.90;;;;;;5112905;28;20386;-38
2022/12/04 04:09:51;;;;;;;;;;;1.10;99.90;;;;;;5112199;28;19927;-39
2022/12/04 04:12:19;;;;;;;;;;;1.10;99.90;;;;;;5098150;28;19909;-40
2022/12/04 04:25:50;;;;;;;;;;;1.10;99.90;;;;;;5101568;28;19982;-41
2022/12/04 04:28:26;;;;;;;;;;;1.10;99.90;;;;;;5096268;28;20286;-41
2022/12/04 04:30:53;;;;;;;;;;;1.10;99.90;;;;;;5096106;28;20002;-40
2022/12/04 04:33:20;;;;;;;;;;;1.00;99.90;;;;;;5095719;28;19912;-40
2022/12/04 04:35:53;;;;;;;;;;;1.00;99.90;;;;;;5109564;28;20386;-41
2022/12/04 04:38:24;;;;;;;;;;;1.00;99.90;;;;;;5116405;28;19915;-39
2022/12/04 04:40:58;;;;;;;;;;;1.00;99.90;;;;;;5115317;28;19916;-39
2022/12/04 04:43:23;;;;;;;;;;;1.10;99.90;;;;;;5103040;28;19916;-40
2022/12/04 04:45:52;;;;;;;;;;;1.00;99.90;;;;;;5108655;28;19964;-42
2022/12/04 04:48:24;;;;;;;;;;;1.10;99.90;;;;;;5116346;28;20002;-40
2022/12/04 04:50:51;;;;;;;;;;;1.00;99.90;;;;;;5116048;28;19908;-41
2022/12/04 04:53:19;;;;;;;;;;;1.00;99.90;;;;;;5115573;28;19976;-41
2022/12/04 04:55:44;;;;;;;;;;;1.00;99.90;;;;;;5103367;28;19916;-40
2022/12/04 04:58:15;;;;;;;;;;;1.00;99.90;;;;;;5095348;28;20274;-40
2022/12/04 05:00:43;;;;;;;;;;;1.10;99.90;;;;;;5095006;28;19912;-40
2022/12/04 05:03:09;;;;;;;;;;;1.10;99.90;;;;;;5095460;28;19967;-41
2022/12/04 05:05:34;;;;;;;;;;;1.00;99.90;;;;;;5106007;28;19943;-40
2022/12/04 05:08:00;;;;;;;;;;;1.10;99.90;;;;;;5115246;28;19944;-40
2022/12/04 05:10:25;;;;;;;;;;;1.10;99.90;;;;;;5115728;28;20279;-40
2022/12/04 05:12:51;;;;;;;;;;;1.10;99.90;;;;;;5115411;28;20007;-39
2022/12/04 05:15:16;;;;;;;;;;;1.00;99.90;;;;;;5107055;28;19920;-40
2022/12/04 05:17:42;;;;;;;;;;;1.00;99.90;;;;;;5095338;28;19908;-40
2022/12/04 05:20:08;;;;;;;;;;;1.10;99.90;;;;;;5095182;28;20303;-40
2022/12/04 05:22:35;;;;;;;;;;;1.00;99.90;;;;;;5094416;28;20271;-39
2022/12/04 05:25:01;;;;;;;;;;;1.10;99.90;;;;;;5092246;28;20065;-40
2022/12/04 05:27:27;;;;;;;;;;;1.00;99.90;;;;;;5115420;28;19908;-41
2022/12/04 05:29:56;;;;;;;;;;;1.10;99.90;;;;;;5114980;28;19916;-40
2022/12/04 05:32:23;;;;;;;;;;;1.10;99.90;;;;;;5115477;28;19915;-40
2022/12/04 05:34:49;;;;;;;;;;;1.10;99.90;;;;;;5110368;28;20405;-39
2022/12/04 05:37:15;;;;;;;;;;;1.10;99.90;;;;;;5095097;28;19908;-39
2022/12/04 05:39:40;;;;;;;;;;;1.00;99.90;;;;;;5076851;28;20381;-40
2022/12/04 05:42:05;;;;;;;;;;;1.00;99.90;;;;;;5093952;28;20007;-39
2022/12/04 05:44:31;;;;;;;;;;;1.00;99.90;;;;;;5109548;28;20006;-39
2022/12/04 05:46:56;;;;;;;;;;;1.00;99.90;;;;;;5114867;28;20332;-39
2022/12/04 05:49:22;;;;;;;;;;;1.10;99.90;;;;;;5103994;28;20366;-41
2022/12/04 05:51:48;;;;;;;;;;;1.10;99.90;;;;;;5094690;28;19915;-40
2022/12/04 05:54:14;;;;;;;;;;;1.10;99.90;;;;;;5106481;28;19915;-40
2022/12/04 05:56:39;;;;;;;;;;;1.10;99.90;;;;;;5114529;28;19961;-41
2022/12/04 05:59:05;;;;;;;;;;;1.10;99.90;;;;;;5115130;28;20405;-43
2022/12/04 06:01:30;;;;;;;;;;;1.00;99.90;;;;;;5114539;28;19911;-39
2022/12/04 06:03:56;;;;;;;;;;;1.10;99.90;;;;;;5104509;28;19924;-40
2022/12/04 06:06:22;;;;;;;;;;;1.10;99.90;;;;;;5094557;28;20268;-40
2022/12/04 06:08:52;;;;;;;;;;;1.10;99.90;;;;;;5093888;28;19916;-40
2022/12/04 06:11:19;;;;;;;;;;;1.10;99.90;;;;;;5093623;28;19920;-40
2022/12/04 06:13:46;;;;;;;;;;;1.10;99.90;;;;;;5099869;28;19954;-41
2022/12/04 06:16:15;;;;;;;;;;;1.10;99.90;;;;;;5114336;28;19911;-41
2022/12/04 06:18:41;;;;;;;;;;;1.10;99.90;;;;;;5113788;28;20000;-40
2022/12/04 06:21:07;;;;;;;;;;;1.10;99.90;;;;;;5114612;28;19950;-40
2022/12/04 06:23:32;;;;;;;;;;;1.10;99.90;;;;;;5109035;28;19920;-39
2022/12/04 06:26:00;;;;;;;;;;;1.10;99.90;;;;;;5093432;28;19995;-40
2022/12/04 06:28:26;;;;;;;;;;;1.10;99.90;;;;;;5093827;28;20027;-41
2022/12/04 06:30:51;;;;;;;;;;;1.10;99.90;;;;;;5093770;28;20371;-40
2022/12/04 06:33:17;;;;;;;;;;;1.10;99.90;;;;;;5095529;28;19954;-40
2022/12/04 06:35:42;;;;;;;;;;;1.10;99.90;;;;;;5112445;28;19920;-40
2022/12/04 06:38:08;;;;;;;;;;;1.00;99.90;;;;;;5095745;28;20331;-39
2022/12/04 06:40:33;;;;;;;;;;;1.10;99.90;;;;;;5093354;28;19914;-39
2022/12/04 06:42:59;;;;;;;;;;;1.00;99.90;;;;;;5102624;28;20362;-42
2022/12/04 06:45:24;;;;;;;;;;;1.00;99.90;;;;;;5093337;28;19912;-39
2022/12/04 06:47:50;;;;;;;;;;;1.00;99.90;;;;;;5093528;28;19915;-41
2022/12/04 06:50:15;;;;;;;;;;;1.00;99.90;;;;;;5093557;28;19919;-39
2022/12/04 06:52:41;;;;;;;;;;;1.00;99.90;;;;;;5092767;28;19908;-39
2022/12/04 06:55:06;;;;;;;;;;;1.00;99.90;;;;;;5110654;28;19954;-41
2022/12/04 06:57:32;;;;;;;;;;;1.00;99.90;;;;;;5113285;28;20278;-41
2022/12/04 06:59:57;;;;;;;;;;;1.00;99.90;;;;;;5112535;28;19920;-39
2022/12/04 07:02:23;;;;;;;;;;;1.00;99.90;;;;;;5112878;28;19908;-39
2022/12/04 07:04:48;;;;;;;;;;;1.00;99.90;;;;;;5112715;28;20501;-39
2022/12/04 07:07:13;;;;;;;;;;;1.00;99.90;;;;;;5095924;28;19954;-39
2022/12/04 07:09:39;;;;;;;;;;;1.00;99.90;;;;;;5093070;28;19920;-42
2022/12/04 07:12:05;;;;;;;;;;;1.10;99.90;;;;;;5092974;28;20379;-40
2022/12/04 07:14:31;;;;;;;;;;;1.00;99.90;;;;;;5104119;28;19911;-41
2022/12/04 07:16:57;;;;;;;;;;;1.00;99.90;;;;;;5113363;28;19987;-40
2022/12/04 07:19:22;;;;;;;;;;;1.10;99.90;;;;;;5113260;28;19908;-39
2022/12/04 07:21:48;;;;;;;;;;;1.00;99.90;;;;;;5110841;28;20373;-39
2022/12/04 07:24:14;;;;;;;;;;;1.00;99.90;;;;;;5111726;28;19916;-40
2022/12/04 07:26:40;;;;;;;;;;;1.00;99.90;;;;;;5111696;28;19918;-40
2022/12/04 07:29:05;;;;;;;;;;;1.10;99.90;;;;;;5113073;27;19911;-41
2022/12/04 07:31:31;;;;;;;;;;;1.10;99.90;;;;;;5108290;28;19995;-39
2022/12/04 07:33:57;;;;;;;;;;;1.10;99.90;;;;;;5112242;27;19943;-40
2022/12/04 07:36:23;;;;;;;;;;;1.10;99.90;;;;;;5111261;28;19912;-40
2022/12/04 07:38:48;;;;;;;;;;;1.10;99.90;;;;;;5111608;28;19915;-40
2022/12/04 07:41:14;;;;;;;;;;;1.10;99.90;;;;;;5110915;28;19908;-39
2022/12/04 07:43:40;;;;;;;;;;;1.10;99.90;;;;;;5110661;28;20002;-41
2022/12/04 07:46:07;;;;;;;;;;;1.10;99.90;;;;;;5110990;28;19941;-40
2022/12/04 07:48:33;;;;;;;;;;;1.10;99.90;;;;;;5111150;28;20410;-39
2022/12/04 07:51:02;;;;;;;;;;;1.10;99.90;;;;;;5110933;28;20240;-40
2022/12/04 07:53:28;;;;;;;;;;;1.10;99.90;;;;;;5110450;28;19915;-41
2022/12/04 07:55:53;;;;;;;;;;;1.10;99.90;;;;;;5114690;28;20236;-39
2022/12/04 07:58:18;;;;;;;;;;;1.10;99.90;;;;;;5116204;28;19924;-40
2022/12/04 08:00:44;;;;;;;;;;;1.20;99.90;;;;;;5114136;28;20283;-39
2022/12/04 08:03:09;;;;;;;;;;;1.20;99.90;;;;;;5115042;28;19923;-41
2022/12/04 08:05:35;;;;;;;;;;;1.20;99.90;;;;;;5115571;28;19907;-40
2022/12/04 08:08:00;;;;;;;;;;;1.10;99.90;;;;;;5115308;28;19916;-39
2022/12/04 08:10:26;;;;;;;;;;;1.20;99.90;;;;;;5113566;28;19923;-39
2022/12/04 08:12:51;;;;;;;;;;;1.20;99.90;;;;;;5115626;28;20714;-41
2022/12/04 08:15:16;;;;;;;;;;;1.20;99.90;;;;;;5115488;28;20273;-40
2022/12/04 08:17:42;;;;;;;;;;;1.20;99.90;;;;;;5114593;28;19911;-42
2022/12/04 08:20:07;;;;;;;;;;;1.20;99.90;;;;;;5114959;28;19908;-41
2022/12/04 08:22:33;;;;;;;;;;;1.20;99.90;;;;;;5113739;28;20224;-40
2022/12/04 08:24:58;;;;;;;;;;;1.20;99.90;;;;;;5114202;28;20003;-39
2022/12/04 08:27:24;;;;;;;;;;;1.20;99.90;;;;;;5114638;28;20366;-39
2022/12/04 08:29:49;;;;;;;;;;;1.30;99.90;;;;;;5111558;28;19916;-41
2022/12/04 08:32:15;;;;;;;;;;;1.30;99.90;;;;;;5114508;28;19912;-40
2022/12/04 08:34:40;;;;;;;;;;;1.30;99.90;;;;;;5115072;28;19915;-39
2022/12/04 08:37:05;;;;;;;;;;;1.30;99.90;;;;;;5114537;28;20316;-39
2022/12/04 08:39:31;;;;;;;;;;;1.30;99.90;;;;;;5113413;28;19908;-41
2022/12/04 08:41:56;;;;;;;;;;;1.30;99.90;;;;;;5114612;28;19931;-40
2022/12/04 08:44:22;;;;;;;;;;;1.30;99.90;;;;;;5114089;28;20351;-40
2022/12/04 08:46:47;;;;;;;;;;;1.40;99.90;;;;;;5115601;27;19907;-40
2022/12/04 08:49:13;;;;;;;;;;;1.40;99.90;;;;;;5114854;28;19918;-40
2022/12/04 08:51:38;;;;;;;;;;;1.40;99.90;;;;;;5109234;28;20350;-40
2022/12/04 08:54:05;;;;;;;;;;;1.40;99.90;;;;;;5111593;28;19934;-41
2022/12/04 08:56:32;;;;;;;;;;;1.40;99.90;;;;;;5112094;28;20600;-39
2022/12/04 08:58:58;;;;;;;;;;;1.40;99.90;;;;;;5097133;28;19912;-41
2022/12/04 09:01:24;;;;;;;;;;;1.40;99.90;;;;;;5101749;28;20271;-39
2022/12/04 09:03:50;;;;;;;;;;;1.40;99.90;;;;;;5096264;28;19924;-40
2022/12/04 09:06:16;;;;;;;;;;;1.50;99.90;;;;;;5107288;28;19912;-41
2022/12/04 09:08:42;;;;;;;;;;;1.50;99.90;;;;;;5104331;28;20398;-39
2022/12/04 09:11:09;;;;;;;;;;;1.50;99.90;;;;;;5113267;27;20010;-39
2022/12/04 09:13:35;;;;;;;;;;;1.50;99.90;;;;;;5135577;27;19907;-40
2022/12/04 09:16:07;;;;;;;;;;;1.50;99.90;;;;;;5136370;27;20373;-40
2022/12/04 09:18:34;;;;;;;;;;;1.60;99.90;;;;;;5135917;27;19914;-39
2022/12/04 09:21:00;;;;;;;;;;;1.60;99.90;;;;;;5116100;27;19912;-41
2022/12/04 09:23:26;;;;;;;;;;;1.60;99.90;;;;;;5114694;28;20366;-41
2022/12/04 09:25:52;;;;;;;;;;;1.60;99.90;;;;;;5115290;28;19947;-41
2022/12/04 09:28:17;;;;;;;;;;;1.60;99.90;;;;;;5114897;28;20015;-39
2022/12/04 09:30:43;;;;;;;;;;;1.70;99.90;;;;;;5095702;28;19919;-39
2022/12/04 09:33:08;;;;;;;;;;;1.70;99.90;;;;;;5093808;28;19919;-40
2022/12/04 09:35:34;;;;;;;;;;;1.70;99.90;;;;;;5093409;28;20281;-40
2022/12/04 09:37:59;;;;;;;;;;;1.70;99.90;;;;;;5094151;28;19908;-40
2022/12/04 09:40:27;;;;;;;;;;;1.70;99.90;;;;;;5104270;28;19911;-41
2022/12/04 09:43:16;;;;;;;;;;;1.80;99.90;;;;;;5112559;28;19916;-40
2022/12/04 09:45:45;;;;;;;;;;;1.80;99.90;;;;;;5091684;27;19907;-38
2022/12/04 09:48:11;;;;;;;;;;;1.80;99.90;;;;;;5113018;28;19923;-40
2022/12/04 09:50:41;;;;;;;;;;;1.80;99.90;;;;;;5111104;28;20409;-39
2022/12/04 09:53:14;;;;;;;;;;;1.80;99.90;;;;;;5112908;28;20344;-39
2022/12/04 09:55:53;;;;;;;;;;;1.90;99.90;;;;;;5112218;28;19918;-41
2022/12/04 09:58:20;;;;;;;;;;;1.90;99.90;;;;;;5113314;28;19912;-39
2022/12/04 10:00:48;;;;;;;;;;;1.90;99.90;;;;;;5112914;28;20002;-40
2022/12/04 10:03:21;;;;;;;;;;;1.90;99.90;;;;;;5112678;28;19963;-41
2022/12/04 10:05:52;;;;;;;;;;;2.00;99.90;;;;;;5110425;27;19923;-40
2022/12/04 10:08:21;;;;;;;;;;;1.90;99.90;;;;;;5112846;28;20358;-40
2022/12/04 10:11:01;;;;;;;;;;;2.00;99.90;;;;;;5110530;27;20444;-40
2022/12/04 10:13:39;;;;;;;;;;;2.00;99.90;;;;;;5112040;28;19947;-40
2022/12/04 10:16:16;;;;;;;;;;;2.10;99.90;;;;;;5107143;28;19920;-40
2022/12/04 10:18:58;;;;;;;;;;;2.00;99.90;;;;;;5107060;28;19919;-40
2022/12/04 10:21:50;;;;;;;;;;;2.10;99.90;;;;;;5108037;28;19912;-40
2022/12/04 10:24:21;;;;;;;;;;;2.10;99.90;;;;;;5107424;28;19963;-39
2022/12/04 10:26:47;;;;;;;;;;;2.20;99.90;;;;;;5110755;28;19916;-40
2022/12/04 10:29:31;;;;;;;;;;;2.20;99.90;;;;;;5112527;28;19907;-40
2022/12/04 10:32:02;;;;;;;;;;;2.30;99.90;;;;;;5111247;28;19922;-40
2022/12/04 10:34:28;;;;;;;;;;;2.30;99.90;;;;;;5112169;28;19907;-39
2022/12/04 10:36:56;;;;;;;;;;;2.40;99.90;;;;;;5102702;28;19915;-39
2022/12/04 10:39:25;;;;;;;;;;;2.30;99.90;;;;;;5094933;28;19955;-41
2022/12/04 10:41:59;;;;;;;;;;;2.40;99.90;;;;;;5102699;28;19922;-40
2022/12/04 10:44:25;;;;;;;;;;;2.40;99.90;;;;;;5109175;27;19966;-40
2022/12/04 10:46:53;;;;;;;;;;;2.50;99.90;;;;;;5112570;28;20015;-39
2022/12/04 10:49:21;;;;;;;;;;;2.50;99.90;;;;;;5112060;28;19997;-39
2022/12/04 10:51:47;;;;;;;;;;;2.50;99.90;;;;;;5111951;27;19912;-39
2022/12/04 10:54:15;;;;;;;;;;;2.50;99.90;;;;;;5109292;28;20286;-40
2022/12/04 10:56:54;;;;;;;;;;;2.50;99.90;;;;;;5103025;27;19923;-39
2022/12/04 10:59:20;;;;;;;;;;;2.50;99.90;;;;;;5119858;27;19916;-39
2022/12/04 11:01:45;;;;;;;;;;;2.60;99.90;;;;;;5103417;27;20017;-38
2022/12/04 11:04:24;;;;;;;;;;;2.60;99.90;;;;;;5100293;27;19927;-41
2022/12/04 11:06:58;;;;;;;;;;;2.60;99.90;;;;;;5110340;28;19911;-40
2022/12/04 11:09:24;;;;;;;;;;;2.70;99.90;;;;;;5109136;28;20389;-41
2022/12/04 11:11:50;;;;;;;;;;;2.70;99.90;;;;;;5105701;28;19916;-39
2022/12/04 11:14:17;;;;;;;;;;;2.70;99.90;;;;;;5114615;27;19911;-39
2022/12/04 11:16:47;;;;;;;;;;;2.70;99.90;;;;;;5111024;28;20293;-39
2022/12/04 11:19:19;;;;;;;;;;;2.80;99.90;;;;;;5111603;28;19915;-41
2022/12/04 11:21:45;;;;;;;;;;;2.80;99.90;;;;;;5106872;28;19916;-39
2022/12/04 11:24:26;;;;;;;;;;;2.80;99.90;;;;;;5111274;28;19916;-40
2022/12/04 11:26:52;;;;;;;;;;;2.80;99.90;;;;;;5110630;28;20321;-39
2022/12/04 11:29:19;;;;;;;;;;;2.80;99.90;;;;;;5112101;28;20045;-39
2022/12/04 11:31:49;;;;;;;;;;;2.80;99.90;;;;;;5109806;28;19919;-40
2022/12/04 11:34:17;;;;;;;;;;;2.70;99.90;;;;;;5115588;27;19907;-39
2022/12/04 11:36:49;;;;;;;;;;;2.70;99.90;;;;;;5110388;27;19998;-39
2022/12/04 11:39:19;;;;;;;;;;;2.70;99.90;;;;;;5111623;28;19962;-40
2022/12/04 11:41:45;;;;;;;;;;;2.80;99.90;;;;;;5106979;28;19916;-40
2022/12/04 11:44:27;;;;;;;;;;;2.80;99.90;;;;;;5111408;28;20022;-40
2022/12/04 11:46:53;;;;;;;;;;;2.80;99.90;;;;;;5101700;28;19947;-40
2022/12/04 11:49:20;;;;;;;;;;;2.80;99.90;;;;;;5131281;27;19980;-40
2022/12/04 11:51:49;;;;;;;;;;;2.80;99.90;;;;;;5128494;28;20247;-40
2022/12/04 11:54:28;;;;;;;;;;;2.80;99.90;;;;;;5102265;28;19914;-41
2022/12/04 11:56:56;;;;;;;;;;;2.80;99.90;;;;;;5093136;28;20523;-39
2022/12/04 11:59:57;;;;;;;;;;;2.80;99.90;;;;;;5104972;28;19923;-41
2022/12/04 12:02:42;;;;;;;;;;;2.90;99.90;;;;;;5018373;28;19957;-39
2022/12/04 12:05:26;;;;;;;;;;;2.80;99.90;;;;;;5104784;28;20325;-39
2022/12/04 12:08:17;;;;;;;;;;;2.90;99.90;;;;;;5101783;28;19912;-39
2022/12/04 12:10:46;;;;;;;;;;;2.90;99.90;;;;;;5048638;28;19992;-40
2022/12/04 12:13:11;;;;;;;;;;;2.90;99.90;;;;;;5081338;28;19915;-40
2022/12/04 12:15:39;;;;;;;;;;;2.90;99.90;;;;;;5083841;28;19916;-40
2022/12/04 12:18:05;;;;;;;;;;;2.90;99.90;;;;;;5082485;28;19970;-39
2022/12/04 12:20:49;;;;;;;;;;;2.90;99.90;;;;;;5110385;28;19966;-39
2022/12/04 12:23:21;;;;;;;;;;;2.90;99.90;;;;;;5106448;28;19939;-40
2022/12/04 12:26:04;;;;;;;;;;;2.90;99.90;;;;;;5092965;28;19957;-39
2022/12/04 12:28:29;;;;;;;;;;;2.90;99.90;;;;;;5083785;28;19908;-39
2022/12/04 12:31:06;;;;;;;;;;;2.90;99.90;;;;;;5086000;28;19962;-43
2022/12/04 12:33:45;;;;;;;;;;;2.90;99.90;;;;;;5089108;28;19947;-40
2022/12/04 12:36:12;;;;;;;;;;;2.90;99.90;;;;;;5092205;28;20371;-40
2022/12/04 12:38:42;;;;;;;;;;;3.00;99.90;;;;;;5091675;28;19908;-39
2022/12/04 12:41:11;;;;;;;;;;;2.90;99.90;;;;;;5094679;28;19917;-41
2022/12/04 12:43:37;;;;;;;;;;;2.90;99.90;;;;;;5095267;28;19927;-40
2022/12/04 12:46:14;;;;;;;;;;;2.90;99.90;;;;;;5096623;28;19912;-39
2022/12/04 12:48:46;;;;;;;;;;;3.00;99.90;;;;;;5091212;28;19970;-39
2022/12/04 12:51:19;;;;;;;;;;;3.00;99.90;;;;;;5075062;28;20427;-40
2022/12/04 12:53:50;;;;;;;;;;;3.00;99.90;;;;;;5074626;28;19919;-40
2022/12/04 12:56:17;;;;;;;;;;;3.00;99.90;;;;;;5075569;28;20367;-39
2022/12/04 12:58:45;;;;;;;;;;;3.00;99.90;;;;;;5076825;28;19909;-39
2022/12/04 13:01:14;;;;;;;;;;;3.00;99.90;;;;;;5095662;28;19912;-39
2022/12/04 13:03:42;;;;;;;;;;;3.00;99.90;;;;;;5095300;28;19916;-40
2022/12/04 13:06:13;;;;;;;;;;;3.00;99.90;;;;;;5094955;28;20220;-39
2022/12/04 13:08:42;;;;;;;;;;;3.00;99.90;;;;;;5094885;28;19915;-40
2022/12/04 13:11:11;;;;;;;;;;;3.00;99.90;;;;;;5110688;28;19928;-40
2022/12/04 13:13:45;;;;;;;;;;;3.10;99.90;;;;;;5115122;28;19919;-40
2022/12/04 13:16:15;;;;;;;;;;;3.00;99.90;;;;;;5115931;28;20286;-39
2022/12/04 13:18:44;;;;;;;;;;;3.00;99.90;;;;;;5115616;28;19908;-40
2022/12/04 13:21:18;;;;;;;;;;;3.00;99.90;;;;;;5115198;28;20002;-40
2022/12/04 13:24:01;;;;;;;;;;;3.10;99.90;;;;;;5115357;28;19915;-39
2022/12/04 13:26:29;;;;;;;;;;;3.10;99.90;;;;;;5115079;28;19957;-40
2022/12/04 13:29:10;;;;;;;;;;;3.10;99.90;;;;;;5114354;28;19914;-40
2022/12/04 13:31:52;;;;;;;;;;;3.10;99.90;;;;;;5095749;28;19962;-40
2022/12/04 13:34:37;;;;;;;;;;;3.10;99.90;;;;;;5107192;28;20247;-39
2022/12/04 13:37:26;;;;;;;;;;;3.10;99.90;;;;;;5106088;28;19919;-40
2022/12/04 13:39:57;;;;;;;;;;;3.10;99.90;;;;;;5086178;28;19912;-39
2022/12/04 13:42:24;;;;;;;;;;;3.10;99.90;;;;;;5105339;28;19966;-40
2022/12/04 13:44:54;;;;;;;;;;;3.10;99.90;;;;;;5106071;28;19920;-39
2022/12/04 13:47:31;;;;;;;;;;;3.00;99.90;;;;;;5103962;28;19998;-39
2022/12/04 13:50:16;;;;;;;;;;;3.00;99.90;;;;;;5115141;28;19930;-40
2022/12/04 13:52:41;;;;;;;;;;;3.00;99.90;;;;;;5099279;28;20987;-39
2022/12/04 13:55:21;;;;;;;;;;;3.00;99.90;;;;;;5104403;28;19994;-39
2022/12/04 13:57:54;;;;;;;;;;;3.00;99.90;;;;;;5094594;28;20398;-39
2022/12/04 14:00:25;;;;;;;;;;;3.00;99.90;;;;;;5094302;28;20285;-40
2022/12/04 14:02:55;;;;;;;;;;;3.00;99.90;;;;;;5104651;27;19915;-40
2022/12/04 14:05:32;;;;;;;;;;;3.00;99.90;;;;;;5108814;27;19916;-38
2022/12/04 14:08:05;;;;;;;;;;;3.00;99.90;;;;;;5120707;27;20354;-40
2022/12/04 14:10:33;;;;;;;;;;;2.90;99.90;;;;;;5100628;27;19920;-40
2022/12/04 14:13:01;;;;;;;;;;;2.90;99.90;;;;;;5103405;28;19908;-40
2022/12/04 14:15:29;;;;;;;;;;;2.90;99.90;;;;;;5113597;28;19920;-39
2022/12/04 14:18:03;;;;;;;;;;;2.90;99.90;;;;;;5114419;28;20382;-39
2022/12/04 14:20:30;;;;;;;;;;;2.90;99.90;;;;;;5117536;27;19919;-39
2022/12/04 14:23:21;;;;;;;;;;;2.90;99.90;;;;;;5111716;28;19939;-38
2022/12/04 14:25:47;;;;;;;;;;;3.00;99.90;;;;;;5094656;28;19912;-40
2022/12/04 14:28:13;;;;;;;;;;;2.90;99.90;;;;;;5135270;27;20334;-42
2022/12/04 14:30:39;;;;;;;;;;;2.90;99.90;;;;;;5128348;27;19933;-40
2022/12/04 14:33:04;;;;;;;;;;;2.90;99.90;;;;;;5115069;28;19908;-40
2022/12/04 14:35:31;;;;;;;;;;;2.90;99.90;;;;;;5114759;28;19941;-39
2022/12/04 14:37:59;;;;;;;;;;;2.90;99.90;;;;;;5103027;28;19908;-41
2022/12/04 14:40:27;;;;;;;;;;;2.90;99.90;;;;;;5094352;28;19915;-40
2022/12/04 14:42:53;;;;;;;;;;;2.90;99.90;;;;;;5101086;28;20073;-40
2022/12/04 14:45:37;;;;;;;;;;;2.90;99.90;;;;;;5114620;28;19951;-39
2022/12/04 14:48:10;;;;;;;;;;;2.90;99.90;;;;;;5114600;28;20305;-40
2022/12/04 14:50:38;;;;;;;;;;;2.90;99.90;;;;;;5114235;28;19962;-40
2022/12/04 14:53:11;;;;;;;;;;;2.90;99.90;;;;;;5114977;28;19930;-40